Time;durP1;ratioP1;P1;durP2;ratioP2;P2;SDS_P1;SDS_P2;PMS_P1;PMS_P2;Temp;Humidity;BMP_temperature;BMP_pressure;BME280_temperature;BME280_humidity;BME280_pressure;Samples;Min_cycle;Max_cycle;Signal;HPM_P1;HPM_P2
2021/04/06 00:02:26;;;;;;;27.45;17.83;;;;;;;6.52;58.24;94342.63;5093013;28;20649;-70
2021/04/06 00:04:56;;;;;;;26.15;16.83;;;;;;;6.50;58.38;94355.09;5080158;28;20214;-70
2021/04/06 00:07:24;;;;;;;25.05;16.92;;;;;;;6.52;58.38;94342.63;5093272;28;20264;-69
2021/04/06 00:09:55;;;;;;;30.73;17.60;;;;;;;6.58;58.29;94340.88;5078845;28;20231;-70
2021/04/06 00:12:23;;;;;;;26.65;17.23;;;;;;;6.49;58.48;94335.31;5052020;28;20276;-70
2021/04/06 00:14:51;;;;;;;28.52;17.35;;;;;;;6.40;58.78;94318.56;5074745;28;20241;-70
2021/04/06 00:17:19;;;;;;;28.30;17.30;;;;;;;6.43;58.64;94338.88;5052491;28;20262;-70
2021/04/06 00:19:47;;;;;;;25.25;16.52;;;;;;;6.43;58.69;94333.69;5074229;28;20198;-70
2021/04/06 00:22:17;;;;;;;28.42;16.83;;;;;;;6.30;59.27;94328.03;5091896;28;20226;-71
2021/04/06 00:24:48;;;;;;;28.60;17.60;;;;;;;5.86;60.48;94301.22;5080949;28;20191;-70
2021/04/06 00:27:22;;;;;;;26.95;17.20;;;;;;;6.03;60.00;94320.19;5092300;28;20229;-71
2021/04/06 00:30:02;;;;;;;25.83;17.45;;;;;;;6.05;60.09;94321.53;5079596;28;20242;-70
2021/04/06 00:32:29;;;;;;;26.17;16.38;;;;;;;5.89;60.13;94300.78;5083375;28;20756;-71
2021/04/06 00:34:58;;;;;;;25.60;15.60;;;;;;;5.72;61.24;94295.56;5079317;28;20188;-72
2021/04/06 00:37:26;;;;;;;25.02;15.82;;;;;;;5.70;61.25;94286.44;5092351;28;20313;-72
2021/04/06 00:40:09;;;;;;;25.33;16.40;;;;;;;5.89;61.04;94295.56;5078653;28;20211;-72
2021/04/06 00:42:38;;;;;;;22.15;15.10;;;;;;;6.01;60.54;94288.44;5092226;28;20699;-72
2021/04/06 00:45:21;;;;;;;25.40;15.63;;;;;;;6.18;59.96;94288.38;5078812;28;20204;-71
2021/04/06 00:47:59;;;;;;;22.58;15.68;;;;;;;5.81;60.33;94262.16;5090869;28;20199;-72
2021/04/06 00:50:31;;;;;;;25.70;16.10;;;;;;;5.62;61.41;94285.03;5078643;28;20203;-71
2021/04/06 00:53:00;;;;;;;23.75;15.20;;;;;;;5.80;61.05;94276.19;5090572;28;20214;-72
2021/04/06 00:55:52;;;;;;;21.20;14.93;;;;;;;5.83;61.01;94270.53;5080478;28;20244;-70
2021/04/06 00:58:18;;;;;;;22.73;14.73;;;;;;;5.79;60.95;94269.41;5087757;28;20580;-70
2021/04/06 01:00:45;;;;;;;23.83;16.00;;;;;;;5.92;60.60;94263.88;5081145;28;20586;-70
2021/04/06 01:03:14;;;;;;;26.95;17.45;;;;;;;6.09;59.98;94260.19;5089147;28;20310;-70
2021/04/06 01:05:59;;;;;;;23.85;15.88;;;;;;;6.09;59.80;94259.41;5075630;28;20198;-70
2021/04/06 01:08:27;;;;;;;24.55;16.83;;;;;;;5.87;60.54;94267.22;5073573;28;20187;-71
2021/04/06 01:10:54;;;;;;;25.80;17.48;;;;;;;5.99;60.27;94264.47;5081661;28;20188;-71
2021/04/06 01:13:23;;;;;;;26.58;17.33;;;;;;;5.97;60.61;94258.72;5088027;28;20196;-70
2021/04/06 01:15:54;;;;;;;26.08;18.05;;;;;;;5.44;61.69;94255.94;5082286;28;20197;-70
2021/04/06 01:18:27;;;;;;;29.20;18.50;;;;;;;5.37;62.68;94263.09;5087784;28;20677;-69
2021/04/06 01:20:55;;;;;;;28.08;17.80;;;;;;;5.50;62.05;94250.56;5080499;28;20306;-69
2021/04/06 01:23:22;;;;;;;28.60;19.15;;;;;;;5.54;61.70;94256.88;5087381;28;20207;-70
2021/04/06 01:26:00;;;;;;;32.97;20.10;;;;;;;5.28;62.43;94257.53;5081914;28;20214;-69
2021/04/06 01:28:28;;;;;;;37.03;20.92;;;;;;;5.28;62.24;94251.53;5081896;28;20187;-70
2021/04/06 01:30:56;;;;;;;28.52;19.95;;;;;;;5.16;63.10;94236.84;5081838;28;20203;-70
2021/04/06 01:33:26;;;;;;;30.50;19.95;;;;;;;5.24;62.98;94240.84;5087653;28;20238;-71
2021/04/06 01:35:55;;;;;;;28.33;18.98;;;;;;;4.87;64.19;94252.75;5081993;28;20214;-70
2021/04/06 01:38:25;;;;;;;26.70;18.77;;;;;;;4.72;64.89;94255.91;5087027;28;20187;-70
2021/04/06 01:40:53;;;;;;;27.90;19.27;;;;;;;4.59;65.43;94251.00;5081645;28;20221;-71
2021/04/06 01:43:22;;;;;;;32.80;20.52;;;;;;;4.91;64.07;94252.03;5086687;28;20219;-70
2021/04/06 01:45:53;;;;;;;33.63;20.90;;;;;;;4.93;63.90;94244.81;5081579;28;20728;-70
2021/04/06 01:48:19;;;;;;;33.15;22.00;;;;;;;4.94;63.55;94243.00;5086961;28;20218;-70
2021/04/06 01:50:56;;;;;;;34.58;22.73;;;;;;;5.09;63.44;94238.81;5081686;28;20198;-70
2021/04/06 01:53:24;;;;;;;30.50;19.80;;;;;;;4.92;63.78;94248.44;5089249;28;20192;-70
2021/04/06 01:55:57;;;;;;;30.58;21.02;;;;;;;4.61;64.99;94241.16;5083547;28;20589;-69
2021/04/06 01:58:27;;;;;;;31.67;20.60;;;;;;;4.80;63.84;94242.50;5087976;28;20537;-71
2021/04/06 02:03:29;;;;;;;30.38;20.05;;;;;;;4.65;63.86;94234.47;5087194;28;20215;-71
2021/04/06 02:05:56;;;;;;;31.10;20.77;;;;;;;4.64;64.28;94245.88;5080831;28;20565;-70
2021/04/06 02:08:25;;;;;;;33.20;20.35;;;;;;;4.90;63.67;94234.91;5086508;28;20190;-70
2021/04/06 02:10:51;;;;;;;30.38;20.08;;;;;;;4.91;63.50;94233.88;5081108;28;20198;-70
2021/04/06 02:13:19;;;;;;;30.90;20.33;;;;;;;5.03;63.50;94229.41;5086987;28;20223;-70
2021/04/06 02:15:58;;;;;;;28.27;19.20;;;;;;;5.08;62.85;94237.25;5080993;28;20206;-70
2021/04/06 02:18:27;;;;;;;30.13;19.70;;;;;;;4.35;65.04;94233.19;5086515;28;20199;-72
2021/04/06 02:20:57;;;;;;;27.95;18.95;;;;;;;4.75;63.99;94223.47;5080930;28;20207;-70
2021/04/06 02:23:24;;;;;;;31.17;19.60;;;;;;;5.04;63.44;94224.97;5086243;28;20238;-71
2021/04/06 02:25:55;;;;;;;29.52;19.88;;;;;;;5.06;63.22;94228.91;5081129;28;20203;-69
2021/04/06 02:28:24;;;;;;;32.17;20.33;;;;;;;5.10;62.87;94219.63;5086252;28;20667;-70
2021/04/06 02:31:01;;;;;;;29.45;18.65;;;;;;;4.41;65.20;94233.03;5080797;28;20384;-70
2021/04/06 02:33:31;;;;;;;28.95;18.73;;;;;;;4.81;63.84;94230.31;5085109;28;20194;-70
2021/04/06 02:36:09;;;;;;;29.75;18.98;;;;;;;4.92;63.39;94226.88;5080774;28;20280;-71
2021/04/06 02:38:39;;;;;;;27.08;18.48;;;;;;;5.05;62.69;94219.53;5085886;28;20209;-69
2021/04/06 02:41:18;;;;;;;34.65;19.38;;;;;;;5.10;62.11;94230.00;5072539;28;20293;-71
2021/04/06 02:43:53;;;;;;;31.33;19.55;;;;;;;5.07;62.55;94227.88;5086627;28;20195;-71
2021/04/06 02:46:27;;;;;;;29.80;18.83;;;;;;;5.02;62.59;94227.81;5073973;28;20217;-70
2021/04/06 02:48:55;;;;;;;30.13;19.17;;;;;;;4.74;63.50;94222.72;5085086;28;20648;-71
2021/04/06 02:51:21;;;;;;;28.20;18.40;;;;;;;4.60;64.14;94226.59;5081767;28;20680;-70
2021/04/06 02:53:51;;;;;;;32.30;18.67;;;;;;;4.82;63.17;94221.50;5084406;28;20206;-70
2021/04/06 02:56:31;;;;;;;26.92;18.77;;;;;;;5.01;62.74;94215.06;5078900;28;20202;-70
2021/04/06 02:59:20;;;;;;;26.52;18.13;;;;;;;4.16;64.78;94229.97;5084186;28;20199;-71
2021/04/06 03:01:49;;;;;;;30.15;19.13;;;;;;;4.34;65.31;94223.84;5085436;28;20211;-71
2021/04/06 03:04:27;;;;;;;26.55;17.95;;;;;;;4.56;64.32;94217.72;5081938;28;20196;-70
2021/04/06 03:06:57;;;;;;;28.67;17.95;;;;;;;4.60;63.83;94218.81;5086514;28;20198;-71
2021/04/06 03:09:26;;;;;;;23.75;16.50;;;;;;;4.10;64.83;94225.75;5080618;28;20661;-72
2021/04/06 03:11:55;;;;;;;26.33;18.17;;;;;;;4.16;65.02;94227.38;5086184;28;20203;-71
2021/04/06 03:14:23;;;;;;;26.60;17.92;;;;;;;4.21;64.57;94219.72;5081241;28;20681;-71
2021/04/06 03:16:51;;;;;;;27.60;18.30;;;;;;;3.89;65.22;94190.06;5085493;28;20229;-71
2021/04/06 03:19:31;;;;;;;26.75;17.30;;;;;;;4.37;64.26;94203.41;5081422;28;20670;-71
2021/04/06 03:21:59;;;;;;;26.50;18.02;;;;;;;4.60;63.39;94200.66;5086670;28;20234;-70
2021/04/06 03:24:29;;;;;;;27.88;17.73;;;;;;;4.42;63.92;94203.47;5082366;28;20749;-71
2021/04/06 03:27:03;;;;;;;27.83;17.95;;;;;;;4.33;64.24;94186.72;5090155;28;20584;-71
2021/04/06 03:29:30;;;;;;;28.17;18.20;;;;;;;4.62;63.94;94206.41;5080155;28;20218;-71
2021/04/06 03:31:58;;;;;;;27.80;17.60;;;;;;;4.71;63.63;94205.00;5090333;28;20213;-71
2021/04/06 03:34:38;;;;;;;25.60;17.35;;;;;;;4.69;64.05;94204.44;5084353;28;20314;-71
2021/04/06 03:37:08;;;;;;;34.05;18.23;;;;;;;4.33;65.15;94210.06;5090703;28;20195;-72
2021/04/06 03:39:36;;;;;;;29.70;17.90;;;;;;;3.79;66.74;94195.88;5082437;28;20210;-71
2021/04/06 03:42:04;;;;;;;28.77;18.50;;;;;;;4.29;65.16;94200.41;5090607;28;20214;-71
2021/04/06 03:44:31;;;;;;;27.15;17.95;;;;;;;4.44;64.69;94198.84;5083299;28;20307;-70
2021/04/06 03:47:03;;;;;;;24.50;16.80;;;;;;;4.41;64.55;94201.91;5090184;28;20191;-71
2021/04/06 03:49:32;;;;;;;26.83;17.75;;;;;;;4.41;64.85;94199.31;5083079;28;20574;-70
2021/04/06 03:52:06;;;;;;;25.80;16.65;;;;;;;4.57;64.23;94189.97;5090169;28;20206;-71
2021/04/06 03:54:47;;;;;;;28.00;18.00;;;;;;;4.59;63.98;94196.50;5083134;28;20205;-70
2021/04/06 03:57:20;;;;;;;28.92;17.60;;;;;;;4.11;65.16;94201.38;5092357;28;20215;-70
2021/04/06 03:59:46;;;;;;;24.20;17.67;;;;;;;4.31;64.56;94199.16;5081026;28;20202;-69
2021/04/06 04:02:13;;;;;;;26.63;18.08;;;;;;;4.45;63.64;94184.88;5078323;28;20203;-69
2021/04/06 04:04:39;;;;;;;31.85;17.92;;;;;;;4.44;64.32;94193.66;5066993;28;20207;-70
2021/04/06 04:07:10;;;;;;;26.92;17.58;;;;;;;4.52;63.45;94195.09;5073585;28;20210;-70
2021/04/06 04:09:36;;;;;;;27.55;17.85;;;;;;;4.59;63.37;94201.69;5082695;28;20322;-70
2021/04/06 04:12:04;;;;;;;28.08;17.52;;;;;;;4.70;63.40;94213.03;5092830;28;20210;-69
2021/04/06 04:14:30;;;;;;;28.38;18.88;;;;;;;4.81;62.63;94206.97;5093046;28;20214;-70
2021/04/06 04:16:57;;;;;;;29.13;18.50;;;;;;;4.95;62.64;94209.00;5093044;28;20191;-70
2021/04/06 04:19:24;;;;;;;32.53;19.05;;;;;;;4.63;63.24;94207.22;5092427;28;20191;-70
2021/04/06 04:21:50;;;;;;;27.77;18.75;;;;;;;4.79;63.02;94201.22;5080904;28;20235;-71
2021/04/06 04:24:17;;;;;;;29.48;18.63;;;;;;;4.80;62.90;94198.38;5072398;28;20200;-70
2021/04/06 04:26:43;;;;;;;27.15;18.60;;;;;;;4.83;63.21;94208.31;5072713;28;20196;-70
2021/04/06 04:29:10;;;;;;;35.50;19.17;;;;;;;4.85;63.10;94201.06;5072203;28;20275;-69
2021/04/06 04:31:37;;;;;;;29.05;18.00;;;;;;;4.99;62.54;94212.72;5072854;28;20203;-70
2021/04/06 04:34:03;;;;;;;28.67;18.02;;;;;;;4.77;63.42;94198.88;5072023;28;20200;-71
2021/04/06 04:36:30;;;;;;;27.10;17.90;;;;;;;4.18;65.63;94196.84;5071304;28;20196;-69
2021/04/06 04:38:56;;;;;;;27.95;18.05;;;;;;;4.37;65.21;94203.41;5079997;28;20195;-71
2021/04/06 04:41:22;;;;;;;31.20;18.67;;;;;;;4.54;64.41;94204.22;5092327;28;20203;-70
2021/04/06 04:43:49;;;;;;;30.30;18.33;;;;;;;4.34;65.08;94198.69;5085809;28;20229;-69
2021/04/06 04:46:15;;;;;;;32.78;19.77;;;;;;;4.08;66.02;94209.63;5077262;28;20199;-68
2021/04/06 04:48:41;;;;;;;39.17;19.20;;;;;;;4.39;65.51;94203.16;5065879;28;20677;-68
2021/04/06 04:51:08;;;;;;;29.40;19.13;;;;;;;4.61;64.23;94181.50;5066304;28;20211;-70
2021/04/06 04:53:34;;;;;;;31.73;20.08;;;;;;;4.92;63.75;94191.31;5070405;28;20191;-74
2021/04/06 04:56:01;;;;;;;124.78;80.25;;;;;;;4.98;63.77;94187.75;5071856;28;20199;-72
2021/04/06 04:58:27;;;;;;;225.68;165.30;;;;;;;5.19;63.39;94186.25;5072233;28;20204;-69
2021/04/06 05:00:54;;;;;;;66.55;38.72;;;;;;;5.29;62.91;94194.19;5071846;28;20302;-70
2021/04/06 05:03:20;;;;;;;30.35;19.63;;;;;;;4.86;64.12;94200.06;5071419;28;20251;-69
2021/04/06 05:05:46;;;;;;;31.23;18.92;;;;;;;5.07;63.67;94177.78;5071636;28;20258;-71
2021/04/06 05:08:13;;;;;;;28.65;18.15;;;;;;;5.25;63.13;94180.09;5071674;28;20198;-69
2021/04/06 05:10:39;;;;;;;33.03;19.95;;;;;;;5.02;64.25;94182.88;5071483;28;20192;-70
2021/04/06 05:13:06;;;;;;;30.85;18.17;;;;;;;5.20;63.97;94187.03;5071940;28;20195;-70
2021/04/06 05:15:33;;;;;;;28.35;19.05;;;;;;;5.16;64.37;94182.31;5071502;28;20637;-72
2021/04/06 05:17:59;;;;;;;52.28;33.50;;;;;;;5.51;63.55;94178.63;5071810;28;20215;-69
2021/04/06 05:20:26;;;;;;;86.72;61.65;;;;;;;5.63;63.67;94171.47;5071041;28;20207;-72
2021/04/06 05:22:52;;;;;;;30.27;18.05;;;;;;;5.88;62.77;94174.38;5071646;28;20789;-73
2021/04/06 05:25:19;;;;;;;24.67;16.60;;;;;;;5.84;62.45;94173.31;5071217;28;20199;-69
2021/04/06 05:27:45;;;;;;;21.20;13.75;;;;;;;5.55;62.22;94184.88;5071159;28;20282;-73
2021/04/06 05:30:11;;;;;;;21.40;14.40;;;;;;;5.28;62.77;94177.00;5071108;28;20198;-72
2021/04/06 05:32:38;;;;;;;22.63;15.07;;;;;;;5.77;62.30;94180.47;5070962;28;20208;-73
2021/04/06 05:35:06;;;;;;;23.20;14.45;;;;;;;5.74;62.25;94175.75;5070906;28;20191;-74
2021/04/06 05:37:32;;;;;;;21.38;13.48;;;;;;;5.92;62.34;94170.28;5071346;28;20192;-73
2021/04/06 05:39:58;;;;;;;20.70;13.43;;;;;;;6.18;60.77;94154.69;5070584;28;20187;-72
2021/04/06 05:42:25;;;;;;;22.27;14.63;;;;;;;5.94;61.21;94173.44;5071042;28;20216;-72
2021/04/06 05:44:52;;;;;;;19.85;14.15;;;;;;;6.11;61.17;94174.13;5070257;28;20191;-72
2021/04/06 05:47:25;;;;;;;21.58;15.23;;;;;;;6.05;61.12;94151.69;5070720;28;20192;-72
2021/04/06 05:49:52;;;;;;;17.98;13.02;;;;;;;6.06;61.28;94176.66;5070384;28;20214;-72
2021/04/06 05:52:19;;;;;;;17.02;11.25;;;;;;;6.35;60.43;94170.19;5070654;28;20211;-71
2021/04/06 05:54:46;;;;;;;18.33;11.95;;;;;;;6.62;59.71;94170.97;5070287;28;20628;-72
2021/04/06 05:57:12;;;;;;;16.10;11.30;;;;;;;6.84;60.01;94163.06;5070748;28;20191;-71
2021/04/06 05:59:38;;;;;;;17.38;11.88;;;;;;;7.02;59.61;94155.63;5070442;28;20200;-72
2021/04/06 06:02:09;;;;;;;15.65;11.93;;;;;;;6.98;58.86;94164.97;5069805;28;20217;-72
2021/04/06 06:04:35;;;;;;;14.95;11.60;;;;;;;6.93;58.87;94151.91;5069262;28;20222;-72
2021/04/06 06:07:03;;;;;;;14.30;11.15;;;;;;;7.24;59.00;94142.47;5070146;28;20588;-72
2021/04/06 06:09:32;;;;;;;14.07;11.15;;;;;;;7.43;58.51;94138.38;5069876;28;20749;-71
2021/04/06 06:12:08;;;;;;;15.05;10.10;;;;;;;7.52;58.79;94138.72;5069778;28;20688;-72
2021/04/06 06:14:42;;;;;;;16.27;10.98;;;;;;;7.63;58.44;94140.28;5070421;28;20283;-71
2021/04/06 06:17:20;;;;;;;14.65;10.63;;;;;;;7.60;58.00;94140.81;5072191;28;20195;-71
2021/04/06 06:19:56;;;;;;;15.40;10.52;;;;;;;7.72;57.53;94138.78;5070295;28;20187;-72
2021/04/06 06:22:25;;;;;;;14.52;10.93;;;;;;;7.77;57.75;94136.94;5070604;28;20223;-73
2021/04/06 06:25:11;;;;;;;13.83;11.07;;;;;;;7.90;57.73;94140.94;5069791;28;20313;-71
2021/04/06 06:27:41;;;;;;;13.95;9.98;;;;;;;7.92;57.55;94136.22;5070939;28;20454;-71
2021/04/06 06:30:32;;;;;;;19.75;11.82;;;;;;;8.04;56.96;94131.56;5068801;28;20206;-72
2021/04/06 06:33:23;;;;;;;14.65;10.20;;;;;;;7.96;56.66;94134.66;5070627;28;20234;-73
2021/04/06 06:35:58;;;;;;;14.80;10.65;;;;;;;7.76;56.21;94127.56;5069911;28;20199;-72
2021/04/06 06:38:34;;;;;;;15.07;11.30;;;;;;;8.07;56.59;94125.81;5070111;28;20175;-75
2021/04/06 06:41:18;;;;;;;13.77;9.25;;;;;;;8.19;56.56;94116.72;5070020;28;20191;-73
2021/04/06 06:43:50;;;;;;;12.43;9.25;;;;;;;8.33;56.02;94131.91;5070142;28;20254;-75
2021/04/06 06:46:21;;;;;;;15.65;10.50;;;;;;;8.47;55.80;94128.50;5070074;28;20687;-74
2021/04/06 06:49:09;;;;;;;12.73;9.82;;;;;;;8.47;55.85;94132.94;5070352;28;20203;-76
2021/04/06 06:51:38;;;;;;;13.73;11.00;;;;;;;8.53;56.45;94124.88;5069943;28;20562;-72
2021/04/06 06:54:05;;;;;;;14.43;11.67;;;;;;;8.53;55.99;94114.44;5070628;28;20445;-70
2021/04/06 06:56:37;;;;;;;14.88;11.30;;;;;;;8.58;57.05;94117.03;5069433;28;20442;-74
2021/04/06 06:59:04;;;;;;;16.37;12.17;;;;;;;8.68;55.67;94106.59;5071359;28;20599;-74
2021/04/06 07:01:33;;;;;;;15.70;11.40;;;;;;;8.47;55.59;94119.88;5074103;28;20537;-75
2021/04/06 07:04:07;;;;;;;15.50;11.90;;;;;;;8.62;55.77;94099.81;5074077;28;20481;-75
2021/04/06 07:06:34;;;;;;;15.70;12.27;;;;;;;8.53;56.55;94097.97;5072625;28;20476;-72
2021/04/06 07:09:01;;;;;;;18.13;13.27;;;;;;;8.73;55.60;94093.53;5074186;28;20468;-72
2021/04/06 07:11:30;;;;;;;19.33;13.53;;;;;;;8.93;55.99;94098.72;5073148;28;20449;-75
2021/04/06 07:13:57;;;;;;;17.40;13.00;;;;;;;8.85;55.68;94099.25;5074258;28;20434;-72
2021/04/06 07:16:25;;;;;;;17.37;13.83;;;;;;;8.76;55.93;94090.38;5073491;28;20452;-72
2021/04/06 07:18:51;;;;;;;19.43;13.53;;;;;;;8.91;55.97;94100.81;5073879;28;20440;-73
2021/04/06 07:21:20;;;;;;;19.07;13.33;;;;;;;9.23;55.31;94096.03;5073589;28;20831;-73
2021/04/06 07:24:03;;;;;;;23.33;14.20;;;;;;;9.23;54.73;94097.09;5074446;28;20485;-71
2021/04/06 07:26:31;;;;;;;27.03;14.20;;;;;;;9.38;55.18;94099.66;5072612;28;20450;-75
2021/04/06 07:28:58;;;;;;;20.50;14.43;;;;;;;9.20;54.57;94088.72;5074132;28;20536;-76
2021/04/06 07:31:25;;;;;;;19.47;12.47;;;;;;;9.20;53.51;94088.72;5073445;28;20450;-73
2021/04/06 07:33:52;;;;;;;17.40;13.40;;;;;;;9.34;53.69;94088.97;5073714;28;20437;-74
2021/04/06 07:36:22;;;;;;;21.63;14.80;;;;;;;9.61;54.51;94083.34;5073520;28;20537;-74
2021/04/06 07:38:54;;;;;;;24.03;15.37;;;;;;;9.70;54.08;94086.97;5073583;28;20576;-76
2021/04/06 07:41:23;;;;;;;26.03;16.60;;;;;;;9.75;53.64;94074.66;5072943;28;20456;-73
2021/04/06 07:43:55;;;;;;;21.70;15.97;;;;;;;9.92;54.30;94074.31;5073626;28;20477;-72
2021/04/06 07:46:34;;;;;;;23.03;14.77;;;;;;;9.61;54.13;94075.50;5073051;28;20445;-73
2021/04/06 07:49:08;;;;;;;18.47;14.70;;;;;;;9.74;54.86;94073.09;5073457;28;20801;-76
2021/04/06 07:52:03;;;;;;;18.03;13.70;;;;;;;10.15;54.38;94065.81;5072817;28;21048;-73
2021/04/06 07:54:50;;;;;;;18.87;14.73;;;;;;;10.26;53.38;94059.44;5073123;28;20511;-71
2021/04/06 07:57:17;;;;;;;23.63;15.37;;;;;;;10.30;52.90;94055.22;5073143;28;20537;-74
2021/04/06 07:59:51;;;;;;;19.53;13.73;;;;;;;10.37;53.09;94050.47;5073397;28;20433;-75
2021/04/06 08:02:23;;;;;;;16.53;12.67;;;;;;;10.61;52.70;94051.31;5072878;28;20465;-75
2021/04/06 08:04:58;;;;;;;16.90;11.67;;;;;;;10.71;52.35;94045.97;5072717;28;20515;-72
2021/04/06 08:07:31;;;;;;;14.77;11.27;;;;;;;10.65;51.67;94041.84;5072997;28;20511;-74
2021/04/06 08:10:00;;;;;;;21.27;12.00;;;;;;;10.82;50.24;94044.81;5071946;28;20573;-74
2021/04/06 08:12:30;;;;;;;13.73;10.70;;;;;;;10.77;50.06;94033.59;5072453;28;20975;-73
2021/04/06 08:15:03;;;;;;;14.53;12.07;;;;;;;10.77;50.47;94023.91;5072286;28;20442;-75
2021/04/06 08:17:29;;;;;;;18.77;12.00;;;;;;;10.91;51.53;94019.56;5072627;28;21041;-73
2021/04/06 08:20:13;;;;;;;15.83;11.17;;;;;;;11.11;51.71;94018.59;5072375;28;20799;-75
2021/04/06 08:22:43;;;;;;;15.30;11.43;;;;;;;11.24;51.24;94012.66;5072729;28;20983;-74
2021/04/06 08:25:18;;;;;;;13.80;11.23;;;;;;;11.29;51.88;94014.44;5072053;28;21024;-75
2021/04/06 08:27:50;;;;;;;10.57;8.73;;;;;;;11.36;50.07;93996.53;5072279;28;20441;-73
2021/04/06 08:30:21;;;;;;;10.13;8.53;;;;;;;11.54;49.11;93995.75;5072485;28;20834;-74
2021/04/06 08:35:45;;;;;;;11.70;8.43;;;;;;;11.76;47.56;93982.91;5070769;28;20523;-72
2021/04/06 08:38:22;;;;;;;14.83;9.27;;;;;;;12.00;49.08;93984.38;5072128;28;20453;-74
2021/04/06 08:40:53;;;;;;;11.23;9.27;;;;;;;12.13;49.08;93973.13;5072356;28;20445;-76
2021/04/06 08:43:42;;;;;;;16.53;9.90;;;;;;;12.36;49.09;93970.66;5071884;28;21003;-73
2021/04/06 08:46:13;;;;;;;14.73;9.23;;;;;;;12.63;49.55;93976.78;5071737;28;20446;-72
2021/04/06 08:48:46;;;;;;;13.00;9.37;;;;;;;12.80;47.82;93966.47;5071935;28;20485;-73
2021/04/06 08:51:20;;;;;;;11.77;8.30;;;;;;;12.80;47.38;93961.22;5071858;28;20457;-75
2021/04/06 08:53:50;;;;;;;12.07;8.70;;;;;;;12.93;47.84;93964.94;5071919;28;20434;-72
2021/04/06 08:56:22;;;;;;;12.23;8.77;;;;;;;12.82;47.34;93950.41;5071902;28;20422;-74
2021/04/06 08:58:49;;;;;;;12.30;8.10;;;;;;;12.62;46.16;93950.78;5072315;28;20454;-77
2021/04/06 09:01:15;;;;;;;15.40;8.43;;;;;;;12.58;47.66;93942.69;5071750;28;20525;-74
2021/04/06 09:03:42;;;;;;;18.07;8.70;;;;;;;12.85;46.65;93947.97;5071589;28;20866;-75
2021/04/06 09:06:11;;;;;;;13.50;8.03;;;;;;;12.81;46.41;93941.75;5071912;28;20534;-71
2021/04/06 09:08:54;;;;;;;11.53;8.80;;;;;;;12.73;46.92;93945.06;5071205;28;21011;-76
2021/04/06 09:11:23;;;;;;;12.67;8.90;;;;;;;13.02;49.01;93931.63;5071500;28;20463;-73
2021/04/06 09:13:53;;;;;;;14.53;9.40;;;;;;;13.19;47.58;93927.34;5071853;28;20461;-74
2021/04/06 09:16:27;;;;;;;11.93;8.97;;;;;;;13.36;48.66;93910.94;5072397;28;20437;-75
2021/04/06 09:19:12;;;;;;;14.53;9.07;;;;;;;13.47;47.24;93922.03;5072251;28;20438;-73
2021/04/06 09:21:42;;;;;;;13.20;8.90;;;;;;;13.65;46.72;93913.22;5069306;28;20453;-74
2021/04/06 09:24:11;;;;;;;11.40;8.13;;;;;;;13.97;47.04;93907.72;5071564;28;20811;-74
2021/04/06 09:26:39;;;;;;;10.70;8.57;;;;;;;14.05;46.09;93901.75;5071051;28;20442;-76
2021/04/06 09:29:18;;;;;;;12.10;8.90;;;;;;;14.18;46.92;93892.97;5071529;28;20473;-73
2021/04/06 09:31:48;;;;;;;12.40;8.33;;;;;;;14.43;46.04;93892.38;5070790;28;20540;-73
2021/04/06 09:34:21;;;;;;;14.20;8.00;;;;;;;14.43;45.01;93852.06;5071243;28;20466;-71
2021/04/06 09:36:59;;;;;;;11.90;7.93;;;;;;;14.83;43.87;93880.78;5070520;28;20441;-72
2021/04/06 09:39:27;;;;;;;12.53;7.73;;;;;;;15.25;44.43;93872.16;5071027;28;20507;-74
2021/04/06 09:41:55;;;;;;;12.73;7.63;;;;;;;15.35;43.11;93880.84;5069071;28;20437;-75
2021/04/06 09:44:25;;;;;;;12.73;8.10;;;;;;;15.72;43.23;93875.00;5071014;28;20482;-75
2021/04/06 09:46:54;;;;;;;13.27;7.80;;;;;;;15.70;43.27;93875.34;5070588;28;20434;-74
2021/04/06 09:49:22;;;;;;;10.70;7.67;;;;;;;15.97;42.51;93863.66;5070740;28;20434;-74
2021/04/06 09:52:01;;;;;;;10.70;7.83;;;;;;;16.13;42.49;93870.75;5070054;28;20442;-72
2021/04/06 09:54:31;;;;;;;8.40;6.90;;;;;;;16.31;40.69;93868.09;5069822;28;20449;-74
2021/04/06 09:57:00;;;;;;;11.20;7.43;;;;;;;16.45;42.41;93860.72;5070510;28;20866;-74
2021/04/06 09:59:28;;;;;;;11.03;7.33;;;;;;;16.80;42.09;93851.63;5070844;28;20446;-71
2021/04/06 10:01:58;;;;;;;11.03;7.90;;;;;;;16.82;41.42;93850.19;5070045;28;20461;-73
2021/04/06 10:04:45;;;;;;;13.57;7.27;;;;;;;16.99;40.79;93844.81;5071271;28;20490;-73
2021/04/06 10:07:19;;;;;;;11.30;7.53;;;;;;;17.26;39.55;93832.19;5070398;28;20814;-72
2021/04/06 10:09:51;;;;;;;12.30;7.50;;;;;;;17.37;39.88;93830.72;5070062;28;20500;-75
2021/04/06 10:12:22;;;;;;;11.20;7.63;;;;;;;17.70;39.24;93821.00;5070334;28;20438;-72
2021/04/06 10:14:50;;;;;;;14.00;6.97;;;;;;;17.60;39.52;93806.25;5070176;28;21033;-70
2021/04/06 10:17:22;;;;;;;10.77;7.30;;;;;;;17.55;39.46;93793.22;5070953;28;20794;-73
2021/04/06 10:20:01;;;;;;;10.87;7.37;;;;;;;17.60;40.28;93792.22;5068856;28;20482;-71
2021/04/06 10:22:41;;;;;;;8.27;6.63;;;;;;;17.80;40.24;93781.59;5069965;28;20497;-75
2021/04/06 10:25:11;;;;;;;8.20;7.33;;;;;;;17.70;38.79;93775.94;5085888;28;20450;-73
2021/04/06 10:28:01;;;;;;;10.70;7.13;;;;;;;17.66;38.79;93772.41;5069891;28;20513;-73
2021/04/06 10:31:01;;;;;;;9.43;6.40;;;;;;;18.05;38.58;93769.19;5070031;28;20445;-73
2021/04/06 10:33:31;;;;;;;14.00;7.30;;;;;;;18.06;39.49;93776.81;5069993;28;20446;-74
2021/04/06 10:36:01;;;;;;;9.43;7.50;;;;;;;18.20;37.98;93760.59;5070346;28;20445;-74
2021/04/06 10:38:37;;;;;;;10.47;7.47;;;;;;;18.18;38.10;93752.19;5071936;28;20503;-73
2021/04/06 10:41:25;;;;;;;7.80;6.47;;;;;;;18.50;37.87;93740.78;5072354;28;20943;-73
2021/04/06 10:43:55;;;;;;;13.00;7.63;;;;;;;18.34;37.88;93744.38;5071101;28;20474;-72
2021/04/06 10:46:25;;;;;;;12.20;6.73;;;;;;;18.52;37.00;93725.28;5070051;28;20415;-72
2021/04/06 10:49:04;;;;;;;9.00;6.10;;;;;;;17.96;36.86;93731.41;5069974;28;20440;-74
2021/04/06 10:51:33;;;;;;;12.30;6.00;;;;;;;18.34;37.68;93729.22;5069983;28;20466;-75
2021/04/06 10:54:08;;;;;;;11.13;6.47;;;;;;;18.59;37.81;93709.59;5069908;28;20503;-72
2021/04/06 10:56:50;;;;;;;8.97;6.20;;;;;;;18.70;37.17;93715.97;5069990;28;20524;-74
2021/04/06 10:59:30;;;;;;;7.50;6.07;;;;;;;19.03;36.05;93703.31;5069909;28;20445;-75
2021/04/06 11:01:59;;;;;;;14.17;6.83;;;;;;;18.88;36.33;93692.63;5069812;28;20433;-74
2021/04/06 11:04:27;;;;;;;8.50;6.60;;;;;;;18.80;35.51;93694.28;5069482;28;20593;-71
2021/04/06 11:06:59;;;;;;;13.37;6.40;;;;;;;19.15;35.44;93674.06;5069801;28;20541;-72
2021/04/06 11:09:44;;;;;;;8.93;6.37;;;;;;;19.08;35.55;93673.88;5070135;28;21030;-73
2021/04/06 11:12:13;;;;;;;8.70;5.80;;;;;;;19.32;36.28;93667.72;5069960;28;20533;-74
2021/04/06 11:14:42;;;;;;;9.30;5.63;;;;;;;19.84;35.78;93664.88;5069871;28;20457;-76
2021/04/06 11:17:10;;;;;;;8.33;6.30;;;;;;;20.14;34.93;93650.06;5069996;28;20450;-75
2021/04/06 11:19:39;;;;;;;9.90;6.57;;;;;;;20.55;33.52;93651.38;5069712;28;20473;-73
2021/04/06 11:22:11;;;;;;;10.83;7.00;;;;;;;20.93;33.13;93638.91;5069973;28;20561;-71
2021/04/06 11:24:39;;;;;;;11.03;6.60;;;;;;;21.55;32.27;93631.75;5070513;28;20508;-74
2021/04/06 11:27:06;;;;;;;14.93;6.47;;;;;;;21.77;31.75;93631.00;5070125;28;20445;-73
2021/04/06 11:29:35;;;;;;;9.00;5.90;;;;;;;21.28;30.93;93620.22;5069516;28;20446;-71
2021/04/06 11:32:07;;;;;;;11.40;6.10;;;;;;;21.20;33.22;93617.78;5069568;28;20458;-71
2021/04/06 11:34:34;;;;;;;8.30;5.30;;;;;;;21.32;31.74;93617.59;5069965;28;20869;-72
2021/04/06 11:37:02;;;;;;;10.90;5.90;;;;;;;21.39;31.59;93618.50;5070477;28;20445;-71
2021/04/06 11:39:31;;;;;;;11.07;6.17;;;;;;;21.42;31.91;93611.72;5070439;28;20963;-73
2021/04/06 11:41:58;;;;;;;10.33;5.50;;;;;;;21.67;30.91;93607.59;5068769;28;20191;-73
2021/04/06 11:44:26;;;;;;;11.57;6.53;;;;;;;21.61;29.90;93612.44;5070470;28;20480;-69
2021/04/06 11:46:53;;;;;;;11.17;5.23;;;;;;;21.60;31.02;93602.13;5074010;28;20200;-73
2021/04/06 11:49:20;;;;;;;12.07;5.00;;;;;;;21.78;31.03;93597.88;5073536;28;20194;-72